sensor_id;sensor_type;location;lat;lon;timestamp;P1;durP1;ratioP1;P2;durP2;ratioP2
10902;SDS011;5504;47.312;11.060;2023-05-10T00:02:00;2.37;;;1.50;;
10902;SDS011;5504;47.312;11.060;2023-05-10T00:04:25;1.37;;;1.10;;
10902;SDS011;5504;47.312;11.060;2023-05-10T00:06:52;1.33;;;1.23;;
10902;SDS011;5504;47.312;11.060;2023-05-10T00:09:18;1.33;;;1.20;;
10902;SDS011;5504;47.312;11.060;2023-05-10T00:11:44;2.73;;;1.40;;
10902;SDS011;5504;47.312;11.060;2023-05-10T00:14:10;2.40;;;1.37;;
10902;SDS011;5504;47.312;11.060;2023-05-10T00:16:36;1.70;;;1.40;;
10902;SDS011;5504;47.312;11.060;2023-05-10T00:19:02;2.03;;;1.40;;
10902;SDS011;5504;47.312;11.060;2023-05-10T00:21:28;2.30;;;1.47;;
10902;SDS011;5504;47.312;11.060;2023-05-10T00:23:54;1.57;;;1.47;;
10902;SDS011;5504;47.312;11.060;2023-05-10T00:26:20;1.50;;;1.40;;
10902;SDS011;5504;47.312;11.060;2023-05-10T00:28:46;1.70;;;1.30;;
10902;SDS011;5504;47.312;11.060;2023-05-10T00:31:11;1.53;;;1.30;;
10902;SDS011;5504;47.312;11.060;2023-05-10T00:33:37;1.60;;;1.43;;
10902;SDS011;5504;47.312;11.060;2023-05-10T00:36:03;2.57;;;1.40;;
10902;SDS011;5504;47.312;11.060;2023-05-10T00:38:32;1.57;;;1.37;;
10902;SDS011;5504;47.312;11.060;2023-05-10T00:43:57;2.50;;;1.60;;
10902;SDS011;5504;47.312;11.060;2023-05-10T00:46:23;2.13;;;1.47;;
10902;SDS011;5504;47.312;11.060;2023-05-10T00:48:50;2.80;;;1.70;;
10902;SDS011;5504;47.312;11.060;2023-05-10T00:51:16;2.60;;;1.73;;
10902;SDS011;5504;47.312;11.060;2023-05-10T00:53:43;2.23;;;1.73;;
10902;SDS011;5504;47.312;11.060;2023-05-10T00:56:10;2.27;;;1.57;;
10902;SDS011;5504;47.312;11.060;2023-05-10T00:58:37;1.60;;;1.50;;
10902;SDS011;5504;47.312;11.060;2023-05-10T01:01:04;2.03;;;1.57;;
10902;SDS011;5504;47.312;11.060;2023-05-10T01:03:31;1.33;;;1.23;;
10902;SDS011;5504;47.312;11.060;2023-05-10T01:05:57;3.13;;;1.50;;
10902;SDS011;5504;47.312;11.060;2023-05-10T01:08:23;1.87;;;1.50;;
10902;SDS011;5504;47.312;11.060;2023-05-10T01:10:50;1.70;;;1.60;;
10902;SDS011;5504;47.312;11.060;2023-05-10T01:13:23;1.60;;;1.50;;
10902;SDS011;5504;47.312;11.060;2023-05-10T01:15:59;2.27;;;1.70;;
10902;SDS011;5504;47.312;11.060;2023-05-10T01:18:28;1.33;;;1.23;;
10902;SDS011;5504;47.312;11.060;2023-05-10T01:26:36;2.30;;;1.73;;
10902;SDS011;5504;47.312;11.060;2023-05-10T01:32:35;4.77;;;1.90;;
10902;SDS011;5504;47.312;11.060;2023-05-10T01:35:37;1.60;;;1.50;;
10902;SDS011;5504;47.312;11.060;2023-05-10T01:40:39;1.70;;;1.40;;
10902;SDS011;5504;47.312;11.060;2023-05-10T01:43:39;1.77;;;1.50;;
10902;SDS011;5504;47.312;11.060;2023-05-10T01:46:14;1.83;;;1.57;;
10902;SDS011;5504;47.312;11.060;2023-05-10T01:48:49;1.67;;;1.40;;
10902;SDS011;5504;47.312;11.060;2023-05-10T01:51:20;1.50;;;1.40;;
10902;SDS011;5504;47.312;11.060;2023-05-10T01:53:48;1.83;;;1.70;;
10902;SDS011;5504;47.312;11.060;2023-05-10T01:56:16;2.40;;;1.67;;
10902;SDS011;5504;47.312;11.060;2023-05-10T01:58:49;1.77;;;1.43;;
10902;SDS011;5504;47.312;11.060;2023-05-10T02:01:16;2.97;;;1.60;;
10902;SDS011;5504;47.312;11.060;2023-05-10T02:03:45;3.27;;;1.77;;
10902;SDS011;5504;47.312;11.060;2023-05-10T02:06:12;2.53;;;1.80;;
10902;SDS011;5504;47.312;11.060;2023-05-10T02:08:41;2.20;;;1.60;;
10902;SDS011;5504;47.312;11.060;2023-05-10T02:11:11;2.00;;;1.80;;
10902;SDS011;5504;47.312;11.060;2023-05-10T02:13:39;2.70;;;1.70;;
10902;SDS011;5504;47.312;11.060;2023-05-10T02:16:06;2.43;;;1.73;;
10902;SDS011;5504;47.312;11.060;2023-05-10T02:18:33;3.67;;;2.10;;
10902;SDS011;5504;47.312;11.060;2023-05-10T02:21:01;2.50;;;1.67;;
10902;SDS011;5504;47.312;11.060;2023-05-10T02:23:28;3.40;;;1.80;;
10902;SDS011;5504;47.312;11.060;2023-05-10T02:25:55;3.87;;;1.83;;
10902;SDS011;5504;47.312;11.060;2023-05-10T02:28:24;2.00;;;1.80;;
10902;SDS011;5504;47.312;11.060;2023-05-10T02:30:52;1.83;;;1.63;;
10902;SDS011;5504;47.312;11.060;2023-05-10T02:33:19;4.13;;;2.07;;
10902;SDS011;5504;47.312;11.060;2023-05-10T02:35:46;2.13;;;1.87;;
10902;SDS011;5504;47.312;11.060;2023-05-10T02:38:13;2.43;;;2.10;;
10902;SDS011;5504;47.312;11.060;2023-05-10T02:40:40;3.77;;;2.20;;
10902;SDS011;5504;47.312;11.060;2023-05-10T02:43:07;3.77;;;1.70;;
10902;SDS011;5504;47.312;11.060;2023-05-10T02:45:38;4.07;;;2.20;;
10902;SDS011;5504;47.312;11.060;2023-05-10T02:48:05;2.40;;;1.60;;
10902;SDS011;5504;47.312;11.060;2023-05-10T02:50:32;2.20;;;2.00;;
10902;SDS011;5504;47.312;11.060;2023-05-10T02:53:03;1.80;;;1.30;;
10902;SDS011;5504;47.312;11.060;2023-05-10T02:55:35;3.83;;;1.83;;
10902;SDS011;5504;47.312;11.060;2023-05-10T02:58:03;2.13;;;1.10;;
10902;SDS011;5504;47.312;11.060;2023-05-10T03:00:29;2.40;;;0.90;;
10902;SDS011;5504;47.312;11.060;2023-05-10T03:02:55;1.67;;;0.90;;
10902;SDS011;5504;47.312;11.060;2023-05-10T03:05:20;0.57;;;0.57;;
10902;SDS011;5504;47.312;11.060;2023-05-10T03:07:46;3.03;;;0.77;;
10902;SDS011;5504;47.312;11.060;2023-05-10T03:10:13;1.70;;;0.90;;
10902;SDS011;5504;47.312;11.060;2023-05-10T03:20:50;2.20;;;1.00;;
10902;SDS011;5504;47.312;11.060;2023-05-10T03:23:27;1.20;;;0.97;;
10902;SDS011;5504;47.312;11.060;2023-05-10T03:26:00;0.97;;;0.90;;
10902;SDS011;5504;47.312;11.060;2023-05-10T03:28:26;1.10;;;1.00;;
10902;SDS011;5504;47.312;11.060;2023-05-10T03:30:56;0.93;;;0.93;;
10902;SDS011;5504;47.312;11.060;2023-05-10T03:33:22;1.00;;;0.90;;
10902;SDS011;5504;47.312;11.060;2023-05-10T03:35:48;2.67;;;1.30;;
10902;SDS011;5504;47.312;11.060;2023-05-10T03:38:13;1.03;;;0.90;;
10902;SDS011;5504;47.312;11.060;2023-05-10T03:40:39;1.23;;;0.90;;
10902;SDS011;5504;47.312;11.060;2023-05-10T03:43:05;2.30;;;1.33;;
10902;SDS011;5504;47.312;11.060;2023-05-10T03:45:31;1.60;;;1.50;;
10902;SDS011;5504;47.312;11.060;2023-05-10T03:47:57;1.50;;;1.40;;
10902;SDS011;5504;47.312;11.060;2023-05-10T03:50:23;0.77;;;0.60;;
10902;SDS011;5504;47.312;11.060;2023-05-10T03:52:49;0.60;;;0.60;;
10902;SDS011;5504;47.312;11.060;2023-05-10T03:55:15;1.07;;;0.60;;
10902;SDS011;5504;47.312;11.060;2023-05-10T03:57:41;1.13;;;0.70;;
10902;SDS011;5504;47.312;11.060;2023-05-10T04:00:07;1.30;;;0.60;;
10902;SDS011;5504;47.312;11.060;2023-05-10T04:02:34;1.87;;;0.60;;
10902;SDS011;5504;47.312;11.060;2023-05-10T04:05:00;0.60;;;0.50;;
10902;SDS011;5504;47.312;11.060;2023-05-10T04:07:26;1.43;;;0.60;;
10902;SDS011;5504;47.312;11.060;2023-05-10T04:09:51;1.00;;;0.70;;
10902;SDS011;5504;47.312;11.060;2023-05-10T04:12:17;0.50;;;0.50;;
10902;SDS011;5504;47.312;11.060;2023-05-10T04:14:43;1.83;;;0.60;;
10902;SDS011;5504;47.312;11.060;2023-05-10T04:17:08;0.50;;;0.50;;
10902;SDS011;5504;47.312;11.060;2023-05-10T04:19:35;1.57;;;0.60;;
10902;SDS011;5504;47.312;11.060;2023-05-10T04:22:01;1.70;;;0.60;;
10902;SDS011;5504;47.312;11.060;2023-05-10T04:24:27;1.30;;;0.60;;
10902;SDS011;5504;47.312;11.060;2023-05-10T04:26:53;0.60;;;0.60;;
10902;SDS011;5504;47.312;11.060;2023-05-10T04:29:20;1.70;;;0.60;;
10902;SDS011;5504;47.312;11.060;2023-05-10T04:31:45;1.57;;;0.90;;
10902;SDS011;5504;47.312;11.060;2023-05-10T04:34:11;1.57;;;0.80;;
10902;SDS011;5504;47.312;11.060;2023-05-10T04:36:37;1.00;;;0.80;;
10902;SDS011;5504;47.312;11.060;2023-05-10T04:39:03;1.20;;;0.70;;
10902;SDS011;5504;47.312;11.060;2023-05-10T04:41:29;0.90;;;0.63;;
10902;SDS011;5504;47.312;11.060;2023-05-10T04:43:55;0.67;;;0.67;;
10902;SDS011;5504;47.312;11.060;2023-05-10T04:46:21;0.70;;;0.70;;
10902;SDS011;5504;47.312;11.060;2023-05-10T04:48:46;1.60;;;0.83;;
10902;SDS011;5504;47.312;11.060;2023-05-10T04:51:12;1.00;;;0.70;;
10902;SDS011;5504;47.312;11.060;2023-05-10T04:53:38;1.37;;;0.80;;
10902;SDS011;5504;47.312;11.060;2023-05-10T04:56:04;0.80;;;0.70;;
10902;SDS011;5504;47.312;11.060;2023-05-10T04:58:29;2.20;;;0.80;;
10902;SDS011;5504;47.312;11.060;2023-05-10T05:00:55;1.90;;;0.90;;
10902;SDS011;5504;47.312;11.060;2023-05-10T05:03:21;1.23;;;0.70;;
10902;SDS011;5504;47.312;11.060;2023-05-10T05:05:47;1.33;;;0.77;;
10902;SDS011;5504;47.312;11.060;2023-05-10T05:08:13;1.53;;;1.10;;
10902;SDS011;5504;47.312;11.060;2023-05-10T05:10:39;1.40;;;0.90;;
10902;SDS011;5504;47.312;11.060;2023-05-10T05:13:04;1.37;;;0.90;;
10902;SDS011;5504;47.312;11.060;2023-05-10T05:15:30;1.77;;;1.00;;
10902;SDS011;5504;47.312;11.060;2023-05-10T05:17:56;1.20;;;0.90;;
10902;SDS011;5504;47.312;11.060;2023-05-10T05:20:22;2.03;;;1.00;;
10902;SDS011;5504;47.312;11.060;2023-05-10T05:22:47;1.67;;;1.10;;
10902;SDS011;5504;47.312;11.060;2023-05-10T05:25:13;0.97;;;0.97;;
10902;SDS011;5504;47.312;11.060;2023-05-10T05:27:40;1.80;;;1.30;;
10902;SDS011;5504;47.312;11.060;2023-05-10T05:30:06;1.57;;;1.40;;
10902;SDS011;5504;47.312;11.060;2023-05-10T05:32:32;2.80;;;1.70;;
10902;SDS011;5504;47.312;11.060;2023-05-10T05:34:58;1.50;;;1.40;;
10902;SDS011;5504;47.312;11.060;2023-05-10T05:37:24;2.53;;;1.70;;
10902;SDS011;5504;47.312;11.060;2023-05-10T05:39:50;1.80;;;1.70;;
10902;SDS011;5504;47.312;11.060;2023-05-10T05:42:16;1.90;;;1.80;;
10902;SDS011;5504;47.312;11.060;2023-05-10T05:44:43;2.73;;;1.60;;
10902;SDS011;5504;47.312;11.060;2023-05-10T05:47:09;4.00;;;2.00;;
10902;SDS011;5504;47.312;11.060;2023-05-10T05:49:35;2.90;;;2.00;;
10902;SDS011;5504;47.312;11.060;2023-05-10T05:52:01;2.90;;;2.07;;
10902;SDS011;5504;47.312;11.060;2023-05-10T05:54:28;3.00;;;1.40;;
10902;SDS011;5504;47.312;11.060;2023-05-10T05:56:57;1.67;;;1.43;;
10902;SDS011;5504;47.312;11.060;2023-05-10T05:59:24;0.93;;;0.87;;
10902;SDS011;5504;47.312;11.060;2023-05-10T06:01:50;1.33;;;1.10;;
10902;SDS011;5504;47.312;11.060;2023-05-10T06:04:16;1.33;;;1.20;;
10902;SDS011;5504;47.312;11.060;2023-05-10T06:06:42;2.50;;;1.37;;
10902;SDS011;5504;47.312;11.060;2023-05-10T06:09:08;2.37;;;1.50;;
10902;SDS011;5504;47.312;11.060;2023-05-10T06:11:34;2.13;;;1.20;;
10902;SDS011;5504;47.312;11.060;2023-05-10T06:14:00;2.20;;;1.60;;
10902;SDS011;5504;47.312;11.060;2023-05-10T06:16:27;1.50;;;1.10;;
10902;SDS011;5504;47.312;11.060;2023-05-10T06:18:53;4.10;;;1.23;;
10902;SDS011;5504;47.312;11.060;2023-05-10T06:21:18;1.77;;;1.63;;
10902;SDS011;5504;47.312;11.060;2023-05-10T06:23:44;1.80;;;1.67;;
10902;SDS011;5504;47.312;11.060;2023-05-10T06:26:10;2.13;;;1.80;;
10902;SDS011;5504;47.312;11.060;2023-05-10T06:28:35;2.57;;;2.07;;
10902;SDS011;5504;47.312;11.060;2023-05-10T06:31:04;2.03;;;1.80;;
10902;SDS011;5504;47.312;11.060;2023-05-10T06:33:30;1.83;;;1.60;;
10902;SDS011;5504;47.312;11.060;2023-05-10T06:35:56;1.00;;;1.00;;
10902;SDS011;5504;47.312;11.060;2023-05-10T06:38:22;2.37;;;1.00;;
10902;SDS011;5504;47.312;11.060;2023-05-10T06:40:48;0.80;;;0.80;;
10902;SDS011;5504;47.312;11.060;2023-05-10T06:43:14;1.20;;;0.77;;
10902;SDS011;5504;47.312;11.060;2023-05-10T06:45:39;1.17;;;0.70;;
10902;SDS011;5504;47.312;11.060;2023-05-10T06:48:06;0.63;;;0.57;;
10902;SDS011;5504;47.312;11.060;2023-05-10T06:50:31;1.57;;;0.70;;
10902;SDS011;5504;47.312;11.060;2023-05-10T06:52:58;0.70;;;0.70;;
10902;SDS011;5504;47.312;11.060;2023-05-10T06:55:24;0.80;;;0.80;;
10902;SDS011;5504;47.312;11.060;2023-05-10T06:57:50;1.23;;;0.73;;
10902;SDS011;5504;47.312;11.060;2023-05-10T07:00:16;0.70;;;0.70;;
10902;SDS011;5504;47.312;11.060;2023-05-10T07:02:43;1.80;;;0.90;;
10902;SDS011;5504;47.312;11.060;2023-05-10T07:05:08;1.33;;;0.90;;
10902;SDS011;5504;47.312;11.060;2023-05-10T07:07:34;1.13;;;0.87;;
10902;SDS011;5504;47.312;11.060;2023-05-10T07:10:00;1.20;;;1.10;;
10902;SDS011;5504;47.312;11.060;2023-05-10T07:12:26;2.30;;;0.87;;
10902;SDS011;5504;47.312;11.060;2023-05-10T07:14:52;2.13;;;0.90;;
10902;SDS011;5504;47.312;11.060;2023-05-10T07:17:18;1.13;;;1.03;;
10902;SDS011;5504;47.312;11.060;2023-05-10T07:19:43;2.03;;;1.30;;
10902;SDS011;5504;47.312;11.060;2023-05-10T07:22:09;2.53;;;1.20;;
10902;SDS011;5504;47.312;11.060;2023-05-10T07:24:35;0.90;;;0.90;;
10902;SDS011;5504;47.312;11.060;2023-05-10T07:27:01;1.77;;;0.70;;
10902;SDS011;5504;47.312;11.060;2023-05-10T07:29:27;0.93;;;0.80;;
10902;SDS011;5504;47.312;11.060;2023-05-10T07:31:53;0.53;;;0.53;;
10902;SDS011;5504;47.312;11.060;2023-05-10T07:34:19;0.77;;;0.63;;
10902;SDS011;5504;47.312;11.060;2023-05-10T07:36:44;1.20;;;0.50;;
10902;SDS011;5504;47.312;11.060;2023-05-10T07:39:10;1.03;;;0.90;;
10902;SDS011;5504;47.312;11.060;2023-05-10T07:41:36;1.03;;;0.67;;
10902;SDS011;5504;47.312;11.060;2023-05-10T07:44:03;0.97;;;0.57;;
10902;SDS011;5504;47.312;11.060;2023-05-10T07:46:29;0.53;;;0.50;;
10902;SDS011;5504;47.312;11.060;2023-05-10T07:48:55;0.60;;;0.60;;
10902;SDS011;5504;47.312;11.060;2023-05-10T07:51:21;0.57;;;0.50;;
10902;SDS011;5504;47.312;11.060;2023-05-10T07:53:47;0.97;;;0.50;;
10902;SDS011;5504;47.312;11.060;2023-05-10T07:56:23;0.50;;;0.50;;
10902;SDS011;5504;47.312;11.060;2023-05-10T07:58:50;0.50;;;0.50;;
10902;SDS011;5504;47.312;11.060;2023-05-10T08:01:16;1.33;;;0.60;;
10902;SDS011;5504;47.312;11.060;2023-05-10T08:03:42;1.23;;;0.70;;
10902;SDS011;5504;47.312;11.060;2023-05-10T08:06:08;1.57;;;0.70;;
10902;SDS011;5504;47.312;11.060;2023-05-10T08:08:34;1.50;;;0.90;;
10902;SDS011;5504;47.312;11.060;2023-05-10T08:10:59;0.70;;;0.70;;
10902;SDS011;5504;47.312;11.060;2023-05-10T08:13:25;1.00;;;0.83;;
10902;SDS011;5504;47.312;11.060;2023-05-10T08:15:51;0.73;;;0.63;;
10902;SDS011;5504;47.312;11.060;2023-05-10T08:18:18;0.60;;;0.60;;
10902;SDS011;5504;47.312;11.060;2023-05-10T08:20:44;1.03;;;0.83;;
10902;SDS011;5504;47.312;11.060;2023-05-10T08:23:10;5.47;;;5.07;;
10902;SDS011;5504;47.312;11.060;2023-05-10T08:25:37;2.13;;;2.03;;
10902;SDS011;5504;47.312;11.060;2023-05-10T08:28:02;4.60;;;4.30;;
10902;SDS011;5504;47.312;11.060;2023-05-10T08:30:28;1.57;;;0.83;;
10902;SDS011;5504;47.312;11.060;2023-05-10T08:32:54;1.70;;;1.60;;
10902;SDS011;5504;47.312;11.060;2023-05-10T08:35:19;0.90;;;0.90;;
10902;SDS011;5504;47.312;11.060;2023-05-10T08:37:45;0.80;;;0.80;;
10902;SDS011;5504;47.312;11.060;2023-05-10T08:40:11;1.27;;;1.17;;
10902;SDS011;5504;47.312;11.060;2023-05-10T08:42:38;1.23;;;0.87;;
10902;SDS011;5504;47.312;11.060;2023-05-10T08:45:08;1.30;;;0.93;;
10902;SDS011;5504;47.312;11.060;2023-05-10T08:47:35;1.20;;;0.90;;
10902;SDS011;5504;47.312;11.060;2023-05-10T08:50:03;1.00;;;0.60;;
10902;SDS011;5504;47.312;11.060;2023-05-10T08:52:30;0.60;;;0.60;;
10902;SDS011;5504;47.312;11.060;2023-05-10T08:54:57;0.60;;;0.60;;
10902;SDS011;5504;47.312;11.060;2023-05-10T08:57:23;0.90;;;0.70;;
10902;SDS011;5504;47.312;11.060;2023-05-10T08:59:49;0.67;;;0.67;;
10902;SDS011;5504;47.312;11.060;2023-05-10T09:02:15;0.97;;;0.60;;
10902;SDS011;5504;47.312;11.060;2023-05-10T09:04:43;1.40;;;0.70;;
10902;SDS011;5504;47.312;11.060;2023-05-10T09:07:09;3.13;;;0.70;;
10902;SDS011;5504;47.312;11.060;2023-05-10T09:09:35;1.43;;;0.70;;
10902;SDS011;5504;47.312;11.060;2023-05-10T09:12:02;0.90;;;0.90;;
10902;SDS011;5504;47.312;11.060;2023-05-10T09:14:28;1.20;;;0.77;;
10902;SDS011;5504;47.312;11.060;2023-05-10T09:16:54;1.50;;;0.80;;
10902;SDS011;5504;47.312;11.060;2023-05-10T09:19:21;1.03;;;0.83;;
10902;SDS011;5504;47.312;11.060;2023-05-10T09:21:46;1.30;;;0.90;;
10902;SDS011;5504;47.312;11.060;2023-05-10T09:24:13;0.80;;;0.80;;
10902;SDS011;5504;47.312;11.060;2023-05-10T09:26:46;0.70;;;0.70;;
10902;SDS011;5504;47.312;11.060;2023-05-10T09:29:16;1.00;;;0.80;;
10902;SDS011;5504;47.312;11.060;2023-05-10T09:31:48;1.20;;;1.00;;
10902;SDS011;5504;47.312;11.060;2023-05-10T09:34:20;1.17;;;1.00;;
10902;SDS011;5504;47.312;11.060;2023-05-10T09:36:55;1.40;;;0.80;;
10902;SDS011;5504;47.312;11.060;2023-05-10T09:39:36;1.13;;;0.90;;
10902;SDS011;5504;47.312;11.060;2023-05-10T09:42:03;0.80;;;0.80;;
10902;SDS011;5504;47.312;11.060;2023-05-10T09:44:32;2.30;;;1.50;;
10902;SDS011;5504;47.312;11.060;2023-05-10T09:46:59;2.17;;;1.40;;
10902;SDS011;5504;47.312;11.060;2023-05-10T09:49:25;1.60;;;1.50;;
10902;SDS011;5504;47.312;11.060;2023-05-10T09:52:01;1.03;;;0.93;;
10902;SDS011;5504;47.312;11.060;2023-05-10T09:54:31;0.60;;;0.60;;
10902;SDS011;5504;47.312;11.060;2023-05-10T09:56:57;1.50;;;1.13;;
10902;SDS011;5504;47.312;11.060;2023-05-10T09:59:24;1.87;;;1.50;;
10902;SDS011;5504;47.312;11.060;2023-05-10T10:01:59;1.03;;;0.93;;
10902;SDS011;5504;47.312;11.060;2023-05-10T10:04:25;1.30;;;1.10;;
10902;SDS011;5504;47.312;11.060;2023-05-10T10:07:03;1.07;;;1.00;;
10902;SDS011;5504;47.312;11.060;2023-05-10T10:09:30;1.27;;;1.00;;
10902;SDS011;5504;47.312;11.060;2023-05-10T10:11:56;1.90;;;0.97;;
10902;SDS011;5504;47.312;11.060;2023-05-10T10:14:22;0.60;;;0.60;;
10902;SDS011;5504;47.312;11.060;2023-05-10T10:16:51;0.70;;;0.60;;
10902;SDS011;5504;47.312;11.060;2023-05-10T10:19:18;1.33;;;1.10;;
10902;SDS011;5504;47.312;11.060;2023-05-10T10:21:44;1.20;;;1.00;;
10902;SDS011;5504;47.312;11.060;2023-05-10T10:24:10;2.33;;;1.77;;
10902;SDS011;5504;47.312;11.060;2023-05-10T10:26:36;1.37;;;0.80;;
10902;SDS011;5504;47.312;11.060;2023-05-10T10:29:10;1.07;;;0.97;;
10902;SDS011;5504;47.312;11.060;2023-05-10T10:32:08;1.10;;;0.77;;
10902;SDS011;5504;47.312;11.060;2023-05-10T10:34:50;1.07;;;0.87;;
10902;SDS011;5504;47.312;11.060;2023-05-10T10:37:17;1.60;;;1.30;;
10902;SDS011;5504;47.312;11.060;2023-05-10T10:39:43;1.63;;;0.80;;
10902;SDS011;5504;47.312;11.060;2023-05-10T10:42:08;2.57;;;0.70;;
10902;SDS011;5504;47.312;11.060;2023-05-10T10:44:36;0.40;;;0.40;;
10902;SDS011;5504;47.312;11.060;2023-05-10T10:52:26;0.60;;;0.50;;
10902;SDS011;5504;47.312;11.060;2023-05-10T11:00:32;1.20;;;0.60;;
10902;SDS011;5504;47.312;11.060;2023-05-10T11:03:04;4.53;;;0.93;;
10902;SDS011;5504;47.312;11.060;2023-05-10T11:08:11;1.60;;;1.50;;
10902;SDS011;5504;47.312;11.060;2023-05-10T11:10:39;1.63;;;0.80;;
10902;SDS011;5504;47.312;11.060;2023-05-10T11:13:13;1.13;;;0.70;;
10902;SDS011;5504;47.312;11.060;2023-05-10T11:15:39;0.60;;;0.60;;
10902;SDS011;5504;47.312;11.060;2023-05-10T11:18:19;1.37;;;0.80;;
10902;SDS011;5504;47.312;11.060;2023-05-10T11:20:51;0.80;;;0.70;;
10902;SDS011;5504;47.312;11.060;2023-05-10T11:23:47;0.80;;;0.70;;
10902;SDS011;5504;47.312;11.060;2023-05-10T11:26:14;0.90;;;0.70;;
10902;SDS011;5504;47.312;11.060;2023-05-10T11:28:44;1.20;;;0.90;;
10902;SDS011;5504;47.312;11.060;2023-05-10T11:31:13;1.00;;;0.70;;
10902;SDS011;5504;47.312;11.060;2023-05-10T11:33:43;0.57;;;0.53;;
10902;SDS011;5504;47.312;11.060;2023-05-10T11:36:55;1.77;;;0.50;;
10902;SDS011;5504;47.312;11.060;2023-05-10T11:39:02;1.10;;;0.70;;
10902;SDS011;5504;47.312;11.060;2023-05-10T11:41:29;0.70;;;0.60;;
10902;SDS011;5504;47.312;11.060;2023-05-10T11:43:56;0.50;;;0.50;;
10902;SDS011;5504;47.312;11.060;2023-05-10T11:46:23;0.50;;;0.50;;
10902;SDS011;5504;47.312;11.060;2023-05-10T11:48:52;0.50;;;0.50;;
10902;SDS011;5504;47.312;11.060;2023-05-10T11:51:20;0.50;;;0.50;;
10902;SDS011;5504;47.312;11.060;2023-05-10T11:53:47;0.60;;;0.60;;
10902;SDS011;5504;47.312;11.060;2023-05-10T11:56:14;0.50;;;0.50;;
10902;SDS011;5504;47.312;11.060;2023-05-10T11:58:39;0.60;;;0.60;;
10902;SDS011;5504;47.312;11.060;2023-05-10T12:01:06;0.93;;;0.83;;
10902;SDS011;5504;47.312;11.060;2023-05-10T12:03:33;0.60;;;0.60;;
10902;SDS011;5504;47.312;11.060;2023-05-10T12:05:59;0.53;;;0.50;;
10902;SDS011;5504;47.312;11.060;2023-05-10T12:08:28;0.93;;;0.60;;
10902;SDS011;5504;47.312;11.060;2023-05-10T12:11:06;0.90;;;0.80;;
10902;SDS011;5504;47.312;11.060;2023-05-10T12:13:37;1.50;;;0.90;;
10902;SDS011;5504;47.312;11.060;2023-05-10T12:16:39;0.97;;;0.80;;
10902;SDS011;5504;47.312;11.060;2023-05-10T12:18:58;1.00;;;0.90;;
10902;SDS011;5504;47.312;11.060;2023-05-10T12:21:26;0.80;;;0.80;;
10902;SDS011;5504;47.312;11.060;2023-05-10T12:23:54;1.43;;;0.50;;
10902;SDS011;5504;47.312;11.060;2023-05-10T12:26:30;1.00;;;0.80;;
10902;SDS011;5504;47.312;11.060;2023-05-10T12:29:11;0.70;;;0.60;;
10902;SDS011;5504;47.312;11.060;2023-05-10T12:31:54;0.80;;;0.60;;
10902;SDS011;5504;47.312;11.060;2023-05-10T12:34:30;0.60;;;0.60;;
10902;SDS011;5504;47.312;11.060;2023-05-10T12:37:01;0.67;;;0.67;;
10902;SDS011;5504;47.312;11.060;2023-05-10T12:39:40;0.50;;;0.50;;
10902;SDS011;5504;47.312;11.060;2023-05-10T12:42:07;1.23;;;0.70;;
10902;SDS011;5504;47.312;11.060;2023-05-10T12:44:33;0.73;;;0.70;;
10902;SDS011;5504;47.312;11.060;2023-05-10T12:46:59;0.80;;;0.80;;
10902;SDS011;5504;47.312;11.060;2023-05-10T12:49:25;0.83;;;0.83;;
10902;SDS011;5504;47.312;11.060;2023-05-10T12:51:50;1.60;;;1.50;;
10902;SDS011;5504;47.312;11.060;2023-05-10T12:54:16;1.57;;;1.00;;
10902;SDS011;5504;47.312;11.060;2023-05-10T12:56:42;0.80;;;0.80;;
10902;SDS011;5504;47.312;11.060;2023-05-10T12:59:08;1.40;;;0.80;;
10902;SDS011;5504;47.312;11.060;2023-05-10T13:01:34;0.80;;;0.50;;
10902;SDS011;5504;47.312;11.060;2023-05-10T13:03:59;0.77;;;0.57;;
10902;SDS011;5504;47.312;11.060;2023-05-10T13:06:25;1.23;;;0.40;;
10902;SDS011;5504;47.312;11.060;2023-05-10T13:08:51;0.63;;;0.50;;
10902;SDS011;5504;47.312;11.060;2023-05-10T13:11:16;1.03;;;0.50;;
10902;SDS011;5504;47.312;11.060;2023-05-10T13:13:44;0.57;;;0.30;;
10902;SDS011;5504;47.312;11.060;2023-05-10T13:16:10;0.40;;;0.40;;
10902;SDS011;5504;47.312;11.060;2023-05-10T13:18:36;0.70;;;0.70;;
10902;SDS011;5504;47.312;11.060;2023-05-10T13:21:01;1.30;;;1.13;;
10902;SDS011;5504;47.312;11.060;2023-05-10T13:23:28;0.60;;;0.60;;
10902;SDS011;5504;47.312;11.060;2023-05-10T13:25:54;0.60;;;0.60;;
10902;SDS011;5504;47.312;11.060;2023-05-10T13:28:20;0.83;;;0.80;;
10902;SDS011;5504;47.312;11.060;2023-05-10T13:30:45;0.60;;;0.60;;
10902;SDS011;5504;47.312;11.060;2023-05-10T13:33:11;0.47;;;0.40;;
10902;SDS011;5504;47.312;11.060;2023-05-10T13:35:37;0.40;;;0.40;;
10902;SDS011;5504;47.312;11.060;2023-05-10T13:38:02;0.40;;;0.40;;
10902;SDS011;5504;47.312;11.060;2023-05-10T13:40:28;0.50;;;0.50;;
10902;SDS011;5504;47.312;11.060;2023-05-10T13:42:54;3.30;;;2.37;;
10902;SDS011;5504;47.312;11.060;2023-05-10T13:45:20;3.73;;;2.23;;
10902;SDS011;5504;47.312;11.060;2023-05-10T13:47:45;2.47;;;1.73;;
10902;SDS011;5504;47.312;11.060;2023-05-10T13:50:11;2.73;;;2.27;;
10902;SDS011;5504;47.312;11.060;2023-05-10T13:52:37;3.27;;;1.90;;
10902;SDS011;5504;47.312;11.060;2023-05-10T13:55:04;2.00;;;1.27;;
10902;SDS011;5504;47.312;11.060;2023-05-10T13:57:30;2.83;;;1.30;;
10902;SDS011;5504;47.312;11.060;2023-05-10T13:59:56;4.60;;;2.30;;
10902;SDS011;5504;47.312;11.060;2023-05-10T14:02:22;3.33;;;1.60;;
10902;SDS011;5504;47.312;11.060;2023-05-10T14:04:48;1.17;;;0.90;;
10902;SDS011;5504;47.312;11.060;2023-05-10T14:07:13;0.93;;;0.60;;
10902;SDS011;5504;47.312;11.060;2023-05-10T14:09:39;0.53;;;0.53;;
10902;SDS011;5504;47.312;11.060;2023-05-10T14:12:05;0.87;;;0.50;;
10902;SDS011;5504;47.312;11.060;2023-05-10T14:14:30;1.27;;;0.53;;
10902;SDS011;5504;47.312;11.060;2023-05-10T14:16:56;0.60;;;0.60;;
10902;SDS011;5504;47.312;11.060;2023-05-10T14:19:22;1.83;;;0.70;;
10902;SDS011;5504;47.312;11.060;2023-05-10T14:21:48;1.90;;;0.53;;
10902;SDS011;5504;47.312;11.060;2023-05-10T14:24:13;0.50;;;0.50;;
10902;SDS011;5504;47.312;11.060;2023-05-10T14:26:39;1.00;;;0.53;;
10902;SDS011;5504;47.312;11.060;2023-05-10T14:29:05;0.90;;;0.70;;
10902;SDS011;5504;47.312;11.060;2023-05-10T14:31:30;0.80;;;0.53;;
10902;SDS011;5504;47.312;11.060;2023-05-10T14:33:56;1.60;;;0.70;;
10902;SDS011;5504;47.312;11.060;2023-05-10T14:36:22;1.33;;;0.57;;
10902;SDS011;5504;47.312;11.060;2023-05-10T14:38:48;1.17;;;0.60;;
10902;SDS011;5504;47.312;11.060;2023-05-10T14:41:15;0.70;;;0.60;;
10902;SDS011;5504;47.312;11.060;2023-05-10T14:43:42;1.60;;;0.60;;
10902;SDS011;5504;47.312;11.060;2023-05-10T14:46:08;1.07;;;0.70;;
10902;SDS011;5504;47.312;11.060;2023-05-10T14:48:34;1.33;;;0.93;;
10902;SDS011;5504;47.312;11.060;2023-05-10T14:51:00;1.10;;;1.00;;
10902;SDS011;5504;47.312;11.060;2023-05-10T14:53:25;1.53;;;1.43;;
10902;SDS011;5504;47.312;11.060;2023-05-10T14:55:51;2.37;;;1.67;;
10902;SDS011;5504;47.312;11.060;2023-05-10T14:58:17;2.10;;;1.83;;
10902;SDS011;5504;47.312;11.060;2023-05-10T15:00:43;1.27;;;1.17;;
10902;SDS011;5504;47.312;11.060;2023-05-10T15:03:08;1.77;;;1.40;;
10902;SDS011;5504;47.312;11.060;2023-05-10T15:05:34;1.33;;;1.23;;
10902;SDS011;5504;47.312;11.060;2023-05-10T15:08:02;1.30;;;1.20;;
10902;SDS011;5504;47.312;11.060;2023-05-10T15:10:28;1.80;;;1.40;;
10902;SDS011;5504;47.312;11.060;2023-05-10T15:12:54;2.03;;;1.40;;
10902;SDS011;5504;47.312;11.060;2023-05-10T15:15:19;1.17;;;0.90;;
10902;SDS011;5504;47.312;11.060;2023-05-10T15:17:45;1.10;;;0.80;;
10902;SDS011;5504;47.312;11.060;2023-05-10T15:20:11;0.97;;;0.90;;
10902;SDS011;5504;47.312;11.060;2023-05-10T15:22:37;1.13;;;1.00;;
10902;SDS011;5504;47.312;11.060;2023-05-10T15:25:03;1.40;;;1.13;;
10902;SDS011;5504;47.312;11.060;2023-05-10T15:27:29;1.70;;;1.00;;